Aviation Digital Data Service (ADDS)

Output produced by METARs form (0618 UTC 14 December 2018)
found at http://www.aviationweather.gov/metar/data/
 
NSFA 140600Z 08008KT 9999 SCT022 28/23 Q1009
NSFA 140500Z 07008KT 040V110 9999 FEW022 SCT290 29/23 Q1009
NSFA 140400Z 06006KT 040V110 9999 FEW022 SCT290 30/23 Q1008
NSFA 140300Z 06009KT 9999 FEW022 BKN280 30/24 Q1008
NSFA 140200Z 05013KT 9999 BKN022 30/23 Q1008
NSFA 140100Z 06010KT 030V090 9999 FEW022 BKN280 31/23 Q1009
NSFA 140000Z 05012KT 9999 FEW022 BKN280 31/24 Q1009
NSFA 132300Z 06011KT 9999 SCT024 30/25 Q1010
NSFA 132200Z 06010KT 9999 SCT030 31/25 Q1010 NOSIG
NSFA 132100Z 06011KT 030V100 9999 SCT026 30/25 Q1011
NSFA 132000Z 07009KT 9999 SCT030 30/24 Q1011
NSFA 131900Z 08009KT 040V110 9999 FEW030 28/24 Q1011
NSFA 131800Z 11003KT 9999 FEW030 BKN170 24/23 Q1010
NSFA 131700Z 00000KT 9999 FEW030 SCT300 22/21 Q1010
NSFA 131600Z 00000KT 9999 FEW026 SCT290 23/22 Q1009
NSFA 131500Z 10003KT 9999 FEW024 BKN290 23/22 Q1009 NOSIG
NSFA 131200Z 00000KT 9999 FEW030 23/22 Q1010 NOSIG
NSFA 131100Z 00000KT 9999 FEW026 24/23 Q1011 NOSIG
NSFA 131000Z 00000KT 9999 FEW025 BKN290 24/22 Q1012 NOSIG
NSFA 130900Z 00000KT 9999 FEW024 BKN290 24/23 Q1012 RMK NIL
NSFA 130800Z 00000KT 9999 FEW025 SCT050 BKN290 24/23 Q1012 NOSI G
NSFA 130700Z 00000KT 9999 FEW020 SCT065 BKN170 25/23 Q1012 RMK NIL
TAF NSFA 140513Z 1406/1506 08008KT 9999 SCT020 SCT045 
     PROB30 
     TEMPO 1415/1420 5000 TSRA FEW017CB 
     PROB30 
     TEMPO 1500/1506 5000 TSRA FEW017CB